KCVN/CVN METAR and TAF weather

Enter ICAO airport designator
Station Type Date Time Source
KCVN METAR 2021/02/25 01:56 UTC NOAA

KCVN 250156Z AUTO 10010KT 10SM CLR 06/M07 A3013 RMK AO2 SLP212 T00611067


Station Type Date Time Source
KCVN Decoded METAR 2021/02/25 01:56 UTC NOAA

Clovis, Clovis Municipal Airport, NM, United States (KCVN) 34-26N 103-05W
Feb 24, 2021 - 08:56 PM EST / 2021.02.25 0156 UTC
Wind: from the E (100 degrees) at 12 MPH (10 KT):0
Visibility: 10 mile(s):0
Sky conditions: clear
Temperature: 43.0 F (6.1 C)
Dew Point: 19.9 F (-6.7 C)
Relative Humidity: 39%
Pressure (altimeter): 30.13 in. Hg (1020 hPa)
ob: KCVN 250156Z AUTO 10010KT 10SM CLR 06/M07 A3013 RMK AO2 SLP212 T00611067
cycle: 2

Station Type Date Time Source
KCVN TAF UTC NOAA

Error!

Example: see airport list